Westport, Illinois
Current Conditions -  °F | °C
As of 7:53 AM on Friday 31 Oct 2014 (Local Time) from KLWV Reporting Station
Overcast Overcast  
Wind Chill: 40°   Ceiling: 6500
Heat Index: 46°   Visibility: 7mi
Dew Point: 43°   Wind: 13mph
Humidity: 89%   Direction: 320°NW
Pressure: 30.07"   Gusts: NA
Location:  38.7501°N, 87.6141°W
Report Text: KLWV 311253Z AUTO 32011KT 7SM FEW041 OVC065 08/06 A3007 RMK AO2 RAB14E24 SLP183 P0000 T00780061 $
Loading
Personal Weather Stations






























Interactive Weather Map
Tropical Storm Tracking
New forecast layout! Learn more

10-Day Weather Forecast

Advertisements
Track Severe Weather on mobile